Time;durP1;ratioP1;P1;durP2;ratioP2;P2;SDS_P1;SDS_P2;PMS_P1;PMS_P2;Temp;Humidity;BMP_temperature;BMP_pressure;BME280_temperature;BME280_humidity;BME280_pressure;Samples;Min_cycle;Max_cycle;Signal;HPM_P1;HPM_P2
2023/05/01 00:02:10;;;;;;;2.83;2.50;;;10.00;76.60;;;;;;5074217;28;20056;-61
2023/05/01 00:04:36;;;;;;;3.45;2.78;;;10.00;76.60;;;;;;5070757;28;20043;-61
2023/05/01 00:07:02;;;;;;;3.33;2.90;;;10.00;76.60;;;;;;5079252;28;20028;-60
2023/05/01 00:09:27;;;;;;;3.00;2.60;;;10.00;76.70;;;;;;5075993;28;20052;-58
2023/05/01 00:11:53;;;;;;;4.00;2.85;;;10.00;76.70;;;;;;5060346;28;20033;-57
2023/05/01 00:14:19;;;;;;;3.50;2.75;;;10.00;76.80;;;;;;5072887;28;20399;-57
2023/05/01 00:16:45;;;;;;;3.38;2.90;;;10.00;76.90;;;;;;5067965;28;20440;-51
2023/05/01 00:19:11;;;;;;;3.58;2.70;;;10.00;76.80;;;;;;5067278;28;20029;-48
2023/05/01 00:21:37;;;;;;;3.60;2.53;;;10.00;76.80;;;;;;5072754;28;20418;-61
2023/05/01 00:24:02;;;;;;;3.13;2.83;;;10.00;76.80;;;;;;5066479;28;20383;-61
2023/05/01 00:26:30;;;;;;;3.33;2.83;;;10.00;76.90;;;;;;5072957;28;20035;-52
2023/05/01 00:28:57;;;;;;;3.70;2.83;;;10.00;76.90;;;;;;5073522;28;20027;-50
2023/05/01 00:31:24;;;;;;;2.65;2.45;;;10.00;76.90;;;;;;5068375;28;20110;-56
2023/05/01 00:33:50;;;;;;;4.13;2.90;;;10.00;76.80;;;;;;5062024;28;20029;-57
2023/05/01 00:36:15;;;;;;;3.97;2.88;;;10.00;76.70;;;;;;5073450;28;20437;-58
2023/05/01 00:38:41;;;;;;;3.90;3.05;;;10.00;76.50;;;;;;5076223;28;20040;-58
2023/05/01 00:41:07;;;;;;;3.65;3.00;;;10.00;76.50;;;;;;5068770;28;20036;-58
2023/05/01 00:43:32;;;;;;;2.75;2.55;;;10.00;76.50;;;;;;5063183;28;20028;-57
2023/05/01 00:45:58;;;;;;;3.53;2.67;;;10.00;76.60;;;;;;5061836;28;20040;-58
2023/05/01 00:48:25;;;;;;;3.60;2.85;;;10.00;77.20;;;;;;5069735;28;20085;-57
2023/05/01 00:50:53;;;;;;;3.33;2.78;;;10.00;76.50;;;;;;5055436;28;20468;-58
2023/05/01 00:53:20;;;;;;;3.28;2.42;;;10.00;76.50;;;;;;5061691;28;20093;-58
2023/05/01 00:55:47;;;;;;;3.03;2.40;;;10.00;76.50;;;;;;5072961;28;20054;-58
2023/05/01 00:58:15;;;;;;;2.90;2.60;;;10.00;76.40;;;;;;5069038;28;20116;-58
2023/05/01 01:00:41;;;;;;;3.70;2.90;;;10.00;76.40;;;;;;5063990;28;20471;-59
2023/05/01 01:03:07;;;;;;;2.95;2.67;;;10.00;76.40;;;;;;5069001;28;20025;-59
2023/05/01 01:05:39;;;;;;;2.65;2.45;;;10.00;76.30;;;;;;5072133;28;20495;-58
2023/05/01 01:08:12;;;;;;;3.60;2.63;;;10.00;76.20;;;;;;5071601;28;20074;-58
2023/05/01 01:11:09;;;;;;;3.35;2.58;;;10.10;76.20;;;;;;5072047;28;20032;-57
2023/05/01 01:14:10;;;;;;;4.43;2.72;;;10.10;76.00;;;;;;5061922;28;20045;-58
2023/05/01 01:16:44;;;;;;;3.38;2.60;;;10.10;75.90;;;;;;5051260;28;20041;-59
2023/05/01 01:19:44;;;;;;;2.92;2.58;;;10.10;76.00;;;;;;5069302;28;20151;-58
2023/05/01 01:22:14;;;;;;;2.90;2.65;;;10.10;75.90;;;;;;5068810;28;20032;-58
2023/05/01 01:25:33;;;;;;;3.58;2.80;;;10.10;76.00;;;;;;5070057;28;20021;-58
2023/05/01 01:28:33;;;;;;;2.92;2.63;;;10.10;75.70;;;;;;5033096;28;20116;-57
2023/05/01 01:31:04;;;;;;;3.08;2.72;;;10.10;75.80;;;;;;5064888;28;20559;-59
2023/05/01 01:33:48;;;;;;;;;;;10.10;75.80;;;;;;5062590;28;20087;-58
2023/05/01 01:36:21;;;;;;;2.88;2.40;;;10.10;75.90;;;;;;5076551;28;19924;-58
2023/05/01 01:39:02;;;;;;;2.58;2.38;;;10.10;75.90;;;;;;5068847;28;20037;-57
2023/05/01 01:41:33;;;;;;;2.80;2.50;;;10.10;75.60;;;;;;5063325;28;20033;-58
2023/05/01 01:44:22;;;;;;;3.50;2.53;;;10.10;75.40;;;;;;5064324;28;20266;-59
2023/05/01 01:46:50;;;;;;;3.47;2.75;;;10.10;75.40;;;;;;5052163;28;20395;-58
2023/05/01 01:49:23;;;;;;;3.53;2.38;;;10.10;75.40;;;;;;5062978;28;20033;-58
2023/05/01 01:51:51;;;;;;;2.80;2.60;;;10.10;75.20;;;;;;5070102;28;20032;-57
2023/05/01 01:54:25;;;;;;;3.03;2.65;;;10.10;75.10;;;;;;5060257;28;20050;-58
2023/05/01 01:56:52;;;;;;;2.80;2.60;;;10.10;75.00;;;;;;5058791;28;20460;-57
2023/05/01 01:59:20;;;;;;;2.53;2.33;;;10.10;75.70;;;;;;5062567;28;20112;-57
2023/05/01 02:01:48;;;;;;;3.10;2.40;;;10.10;75.10;;;;;;5069774;28;20395;-51
2023/05/01 02:04:14;;;;;;;2.83;2.45;;;10.10;75.10;;;;;;5071957;28;20044;-51
2023/05/01 02:06:41;;;;;;;2.78;2.40;;;10.10;74.90;;;;;;5070380;28;20032;-58
2023/05/01 02:09:08;;;;;;;2.90;2.60;;;10.10;74.90;;;;;;5060230;28;20045;-59
2023/05/01 02:11:36;;;;;;;2.72;2.47;;;10.10;74.80;;;;;;5075545;28;20128;-50
2023/05/01 02:14:04;;;;;;;2.92;2.55;;;10.10;74.80;;;;;;5074149;28;20115;-52
2023/05/01 02:16:33;;;;;;;3.78;2.50;;;10.10;74.70;;;;;;5071314;28;20028;-53
2023/05/01 02:19:00;;;;;;;3.13;2.50;;;10.10;74.80;;;;;;5071589;28;20036;-50
2023/05/01 02:21:29;;;;;;;2.60;2.40;;;10.10;74.60;;;;;;5064705;28;20036;-57
2023/05/01 02:23:58;;;;;;;3.85;2.50;;;10.10;74.60;;;;;;5068867;28;20081;-59
2023/05/01 02:26:28;;;;;;;3.55;2.50;;;10.10;74.70;;;;;;5064070;28;20537;-58
2023/05/01 02:28:53;;;;;;;2.40;2.20;;;10.10;74.70;;;;;;5059405;28;20048;-58
2023/05/01 02:31:20;;;;;;;2.90;2.50;;;10.10;74.80;;;;;;5069449;28;20028;-59
2023/05/01 02:33:46;;;;;;;3.90;2.67;;;10.10;74.90;;;;;;5069818;28;20107;-58
2023/05/01 02:36:12;;;;;;;3.03;2.65;;;10.10;74.80;;;;;;5071733;28;20431;-58
2023/05/01 02:38:38;;;;;;;2.50;2.30;;;10.10;74.80;;;;;;5070194;28;20036;-58
2023/05/01 02:41:05;;;;;;;3.10;2.40;;;10.10;74.90;;;;;;5071643;28;20041;-51
2023/05/01 02:43:32;;;;;;;3.78;2.47;;;10.10;74.80;;;;;;5073082;28;20032;-56
2023/05/01 02:46:00;;;;;;;3.22;2.53;;;10.10;74.80;;;;;;5065305;28;20532;-59
2023/05/01 02:48:27;;;;;;;2.90;2.60;;;10.20;74.80;;;;;;5071431;28;20033;-58
2023/05/01 02:50:55;;;;;;;2.28;2.17;;;10.20;74.60;;;;;;5071266;28;20033;-61
2023/05/01 02:53:21;;;;;;;2.90;2.60;;;10.20;74.40;;;;;;5069661;28;20044;-60
2023/05/01 02:55:48;;;;;;;3.25;2.90;;;10.20;74.20;;;;;;5063221;28;20074;-51
2023/05/01 02:58:18;;;;;;;3.00;2.50;;;10.20;74.00;;;;;;5064475;28;20509;-51
2023/05/01 03:00:44;;;;;;;3.15;2.58;;;10.20;73.80;;;;;;5063554;28;20072;-60
2023/05/01 03:03:14;;;;;;;2.58;2.38;;;10.20;73.70;;;;;;5070693;28;20032;-60
2023/05/01 03:05:40;;;;;;;3.00;2.67;;;10.20;73.40;;;;;;5066018;28;20029;-61
2023/05/01 03:08:06;;;;;;;2.50;2.25;;;10.20;73.40;;;;;;5064088;28;20075;-61
2023/05/01 03:10:32;;;;;;;2.60;2.40;;;10.20;73.40;;;;;;5065144;28;20057;-55
2023/05/01 03:12:59;;;;;;;2.53;2.33;;;10.20;73.10;;;;;;5064353;28;20451;-56
2023/05/01 03:15:24;;;;;;;2.72;2.40;;;10.20;73.00;;;;;;5065915;28;20024;-58
2023/05/01 03:17:50;;;;;;;2.63;2.30;;;10.30;72.70;;;;;;5063485;28;20309;-58
2023/05/01 03:20:16;;;;;;;2.97;2.20;;;10.30;72.70;;;;;;5065927;28;20441;-58
2023/05/01 03:22:41;;;;;;;2.83;2.55;;;10.30;72.50;;;;;;5060575;28;20428;-57
2023/05/01 03:25:08;;;;;;;2.40;2.20;;;10.40;72.50;;;;;;5064113;28;20032;-58
2023/05/01 03:27:34;;;;;;;2.30;2.08;;;10.40;72.50;;;;;;5059563;28;20361;-59
2023/05/01 03:29:59;;;;;;;2.25;2.10;;;10.40;72.50;;;;;;5061747;28;20071;-57
2023/05/01 03:32:27;;;;;;;2.90;2.60;;;10.40;72.60;;;;;;5064037;28;20075;-59
2023/05/01 03:34:53;;;;;;;2.28;2.15;;;10.50;72.60;;;;;;5063196;28;20417;-58
2023/05/01 03:37:19;;;;;;;4.30;2.85;;;10.50;72.70;;;;;;5062338;28;20025;-59
2023/05/01 03:39:46;;;;;;;2.60;2.40;;;10.60;72.70;;;;;;5064974;28;20027;-58
2023/05/01 03:42:11;;;;;;;3.10;2.30;;;10.70;72.60;;;;;;5064726;28;20524;-61
2023/05/01 03:44:37;;;;;;;3.17;2.10;;;10.70;72.50;;;;;;5060470;28;20031;-60
2023/05/01 03:47:03;;;;;;;2.38;2.00;;;10.80;72.20;;;;;;5066688;28;20135;-56
2023/05/01 03:49:29;;;;;;;3.63;2.33;;;10.90;72.00;;;;;;5062210;28;20025;-58
2023/05/01 03:51:55;;;;;;;3.50;2.53;;;11.00;71.70;;;;;;5061556;28;20024;-48
2023/05/01 03:54:21;;;;;;;2.20;2.10;;;11.10;71.60;;;;;;5065945;28;20451;-48
2023/05/01 03:56:46;;;;;;;2.38;2.17;;;11.10;71.50;;;;;;5057944;28;20399;-58
2023/05/01 03:59:13;;;;;;;2.30;2.10;;;11.30;71.20;;;;;;5066190;28;20178;-58
2023/05/01 04:01:39;;;;;;;2.50;2.30;;;11.30;70.80;;;;;;5067352;28;20027;-59
2023/05/01 04:04:05;;;;;;;3.80;2.50;;;11.40;70.30;;;;;;5069133;28;20033;-60
2023/05/01 04:06:31;;;;;;;4.03;2.58;;;11.50;69.90;;;;;;5069212;28;20039;-59
2023/05/01 04:08:56;;;;;;;2.70;2.42;;;11.50;69.60;;;;;;5060934;28;20037;-59
2023/05/01 04:11:22;;;;;;;4.75;2.60;;;11.60;69.40;;;;;;5067278;28;20052;-50
2023/05/01 04:13:48;;;;;;;2.67;2.47;;;11.60;69.20;;;;;;5067886;28;20032;-52
2023/05/01 04:16:13;;;;;;;2.40;2.20;;;11.60;68.80;;;;;;5069094;28;20320;-59
2023/05/01 04:18:39;;;;;;;3.45;2.90;;;11.70;68.60;;;;;;5068601;28;20787;-60
2023/05/01 04:21:05;;;;;;;2.83;2.60;;;11.80;68.60;;;;;;5062936;28;20040;-58
2023/05/01 04:23:30;;;;;;;2.85;2.50;;;11.90;68.30;;;;;;5066208;28;20450;-57
2023/05/01 04:25:56;;;;;;;2.40;2.20;;;12.00;67.90;;;;;;5069541;28;20029;-49
2023/05/01 04:28:22;;;;;;;2.92;2.50;;;12.10;67.50;;;;;;5064620;28;20032;-52
2023/05/01 04:30:47;;;;;;;2.50;2.30;;;12.20;67.00;;;;;;5066241;28;20036;-58
2023/05/01 04:33:13;;;;;;;2.58;2.17;;;12.30;67.00;;;;;;5061573;28;20036;-58
2023/05/01 04:35:40;;;;;;;2.55;2.35;;;12.40;66.70;;;;;;5066792;28;20035;-58
2023/05/01 04:38:06;;;;;;;3.05;2.17;;;12.60;66.60;;;;;;5068123;28;20321;-57
2023/05/01 04:40:32;;;;;;;2.40;2.20;;;12.90;66.10;;;;;;5078105;28;20036;-57
2023/05/01 04:42:58;;;;;;;2.85;2.65;;;13.20;65.90;;;;;;5069236;28;20145;-57
2023/05/01 04:45:24;;;;;;;2.03;1.90;;;13.50;65.20;;;;;;5073228;28;20036;-56
2023/05/01 04:47:49;;;;;;;2.85;2.05;;;13.90;64.80;;;;;;5079690;28;20083;-56
2023/05/01 04:50:15;;;;;;;2.33;1.90;;;14.30;64.20;;;;;;5068698;28;20036;-56
2023/05/01 04:52:41;;;;;;;2.25;2.05;;;14.60;63.90;;;;;;5072807;28;20467;-57
2023/05/01 04:55:08;;;;;;;2.25;2.05;;;14.90;63.10;;;;;;5066869;28;20441;-56
2023/05/01 04:57:34;;;;;;;2.42;2.00;;;15.20;62.20;;;;;;5065068;28;20120;-57
2023/05/01 05:00:00;;;;;;;3.80;2.00;;;15.60;61.70;;;;;;5069801;28;20485;-56
2023/05/01 05:02:26;;;;;;;2.53;2.00;;;16.00;61.50;;;;;;5071035;28;20029;-52
2023/05/01 05:04:55;;;;;;;3.13;2.10;;;16.30;60.80;;;;;;5069207;28;20028;-49
2023/05/01 05:07:21;;;;;;;3.10;2.60;;;16.60;60.30;;;;;;5067315;28;20379;-59
2023/05/01 05:09:47;;;;;;;3.00;2.20;;;17.00;59.70;;;;;;5056830;28;20118;-59
2023/05/01 05:12:13;;;;;;;2.40;2.03;;;17.20;58.90;;;;;;5071124;28;20029;-57
2023/05/01 05:14:40;;;;;;;2.28;2.08;;;17.30;58.10;;;;;;5066552;28;20036;-56
2023/05/01 05:17:05;;;;;;;2.75;2.20;;;17.30;57.80;;;;;;5074236;28;20089;-57
2023/05/01 05:19:32;;;;;;;2.38;2.10;;;17.20;57.60;;;;;;5068739;28;20575;-57
2023/05/01 05:21:57;;;;;;;2.72;2.05;;;17.10;57.80;;;;;;5066813;28;20039;-56
2023/05/01 05:24:23;;;;;;;2.60;2.33;;;17.20;57.70;;;;;;5064011;28;20041;-56
2023/05/01 05:26:49;;;;;;;2.90;2.05;;;17.40;57.10;;;;;;5080460;28;20078;-57
2023/05/01 05:29:15;;;;;;;3.33;2.22;;;17.60;56.10;;;;;;5072781;28;20473;-57
2023/05/01 05:31:41;;;;;;;2.60;2.30;;;17.70;55.70;;;;;;5071551;28;20475;-58
2023/05/01 05:34:07;;;;;;;2.22;2.00;;;17.60;55.70;;;;;;5069408;28;20035;-57
2023/05/01 05:36:34;;;;;;;4.30;2.17;;;17.40;56.00;;;;;;5067472;28;20016;-57
2023/05/01 05:38:59;;;;;;;2.88;2.30;;;17.10;55.80;;;;;;5061449;28;20379;-57
2023/05/01 05:41:26;;;;;;;2.50;1.90;;;16.90;56.10;;;;;;5069782;28;20032;-57
2023/05/01 05:43:53;;;;;;;2.53;2.33;;;16.70;56.30;;;;;;5072316;28;20024;-57
2023/05/01 05:46:18;;;;;;;2.65;2.45;;;16.50;56.80;;;;;;5067701;28;20031;-58
2023/05/01 05:48:44;;;;;;;4.15;2.75;;;16.20;57.50;;;;;;5066280;28;20459;-57
2023/05/01 05:51:10;;;;;;;3.90;2.72;;;16.10;57.00;;;;;;5072923;28;20403;-57
2023/05/01 05:53:35;;;;;;;2.97;2.63;;;15.90;57.60;;;;;;5068934;28;20107;-57
2023/05/01 05:56:01;;;;;;;4.40;3.30;;;15.80;57.80;;;;;;5065102;28;20033;-57
2023/05/01 05:58:27;;;;;;;2.92;2.47;;;15.70;57.80;;;;;;5059105;28;20157;-57
2023/05/01 06:00:54;;;;;;;4.93;3.10;;;15.70;58.30;;;;;;5060696;28;20079;-58
2023/05/01 06:03:20;;;;;;;3.80;2.85;;;15.60;58.20;;;;;;5052380;28;20626;-53
2023/05/01 06:05:46;;;;;;;3.58;3.08;;;15.50;58.40;;;;;;5055662;28;20063;-56
2023/05/01 06:08:13;;;;;;;4.03;3.17;;;15.40;58.50;;;;;;5058603;28;20044;-58
2023/05/01 06:10:42;;;;;;;4.00;3.20;;;15.30;58.80;;;;;;5061137;28;20116;-57
2023/05/01 06:13:08;;;;;;;4.68;3.30;;;15.30;59.10;;;;;;5061115;28;20557;-58
2023/05/01 06:15:38;;;;;;;4.93;3.25;;;15.20;59.10;;;;;;5060891;28;20017;-57
2023/05/01 06:18:04;;;;;;;3.60;3.20;;;15.10;59.40;;;;;;5059714;28;20036;-57
2023/05/01 06:20:30;;;;;;;3.88;3.47;;;15.00;59.80;;;;;;5058724;28;20041;-59
2023/05/01 06:22:56;;;;;;;6.25;4.00;;;15.00;60.70;;;;;;5063214;28;20040;-59
2023/05/01 06:25:25;;;;;;;5.18;4.10;;;14.90;61.60;;;;;;5063096;28;20033;-56
2023/05/01 06:27:51;;;;;;;6.60;4.07;;;14.90;61.90;;;;;;5062529;28;20047;-56
2023/05/01 06:30:18;;;;;;;5.20;3.88;;;14.80;62.50;;;;;;5063812;28;20028;-57
2023/05/01 06:32:45;;;;;;;5.20;4.13;;;14.80;62.80;;;;;;5061462;28;20063;-57
2023/05/01 06:35:11;;;;;;;5.45;4.10;;;14.70;63.20;;;;;;5063127;28;20029;-59
2023/05/01 06:37:37;;;;;;;5.60;4.35;;;14.70;63.40;;;;;;5060824;28;21152;-60
2023/05/01 06:40:07;;;;;;;5.85;4.43;;;14.70;63.90;;;;;;5052024;28;20090;-59
2023/05/01 06:42:32;;;;;;;4.78;3.60;;;14.70;63.80;;;;;;5058765;28;20383;-58
2023/05/01 06:44:58;;;;;;;6.30;4.07;;;14.70;64.00;;;;;;5062237;28;20039;-59
2023/05/01 06:47:24;;;;;;;6.10;4.40;;;14.70;64.30;;;;;;5047600;28;20071;-54
2023/05/01 06:49:49;;;;;;;4.38;3.95;;;14.70;64.30;;;;;;5058464;28;20091;-53
2023/05/01 06:52:15;;;;;;;4.45;3.65;;;14.70;64.50;;;;;;5058171;28;20043;-51
2023/05/01 06:54:40;;;;;;;5.30;4.22;;;14.70;64.90;;;;;;5059746;28;20044;-51
2023/05/01 06:57:06;;;;;;;5.38;4.13;;;14.70;64.90;;;;;;5047600;28;20419;-57
2023/05/01 06:59:32;;;;;;;4.70;3.80;;;14.80;65.40;;;;;;5037675;28;20128;-55
2023/05/01 07:01:57;;;;;;;5.07;3.80;;;14.80;65.20;;;;;;5042650;28;20119;-54
2023/05/01 07:04:23;;;;;;;5.20;3.92;;;14.80;65.40;;;;;;5058368;28;20036;-54
2023/05/01 07:06:48;;;;;;;5.05;3.90;;;14.70;65.10;;;;;;5061017;28;20020;-55
2023/05/01 07:09:14;;;;;;;5.43;3.75;;;14.70;65.50;;;;;;5057149;28;20040;-54
2023/05/01 07:11:41;;;;;;;6.63;3.95;;;14.70;65.70;;;;;;5052634;28;20044;-54
2023/05/01 07:14:07;;;;;;;3.92;3.38;;;14.70;65.90;;;;;;5050559;28;20025;-55
2023/05/01 07:16:33;;;;;;;6.45;3.92;;;14.70;65.90;;;;;;5043072;28;20036;-60
2023/05/01 07:18:58;;;;;;;4.38;3.50;;;14.60;66.10;;;;;;5048307;28;20061;-59
2023/05/01 07:21:24;;;;;;;4.78;3.60;;;14.60;66.30;;;;;;5047517;28;20119;-60
2023/05/01 07:23:50;;;;;;;4.50;3.55;;;14.60;66.40;;;;;;5040068;28;20096;-57
2023/05/01 07:26:16;;;;;;;4.82;3.80;;;14.60;66.40;;;;;;5034808;28;20071;-55
2023/05/01 07:28:41;;;;;;;5.15;3.60;;;14.50;66.50;;;;;;5058213;28;20089;-56
2023/05/01 07:31:10;;;;;;;5.70;3.67;;;14.60;66.70;;;;;;5039805;28;20044;-54
2023/05/01 07:33:36;;;;;;;3.67;3.25;;;14.60;67.10;;;;;;5043480;28;20091;-56
2023/05/01 07:36:03;;;;;;;5.28;3.50;;;14.60;67.20;;;;;;5048173;28;20042;-53
2023/05/01 07:38:29;;;;;;;5.07;3.40;;;14.60;67.10;;;;;;5045955;28;20037;-56
2023/05/01 07:40:55;;;;;;;5.75;3.90;;;14.60;66.90;;;;;;5046828;28;20048;-56
2023/05/01 07:43:22;;;;;;;5.85;3.70;;;14.60;66.70;;;;;;5037573;28;20031;-55
2023/05/01 07:45:56;;;;;;;3.90;3.17;;;14.60;66.90;;;;;;5048212;28;20105;-57
2023/05/01 07:48:21;;;;;;;4.80;3.92;;;14.60;66.70;;;;;;5037669;28;20025;-56
2023/05/01 07:50:47;;;;;;;5.05;3.20;;;14.60;66.90;;;;;;5038503;28;20106;-56
2023/05/01 07:53:12;;;;;;;3.92;3.40;;;14.60;67.00;;;;;;5035317;28;20041;-55
2023/05/01 07:55:38;;;;;;;3.75;3.03;;;14.60;67.00;;;;;;5025455;28;20402;-56
2023/05/01 07:58:04;;;;;;;5.70;3.33;;;14.60;67.00;;;;;;5022456;28;20090;-56
2023/05/01 08:00:30;;;;;;;4.18;3.08;;;14.60;67.20;;;;;;5032360;28;20028;-55
2023/05/01 08:02:55;;;;;;;3.72;3.15;;;14.60;67.50;;;;;;5041285;28;20024;-56
2023/05/01 08:05:21;;;;;;;4.07;3.10;;;14.60;67.60;;;;;;5043549;28;20032;-56
2023/05/01 08:07:47;;;;;;;5.35;3.03;;;14.60;67.60;;;;;;5038975;28;20091;-56
2023/05/01 08:10:15;;;;;;;3.60;3.22;;;14.60;67.60;;;;;;5045798;28;20035;-57
2023/05/01 08:12:41;;;;;;;3.85;2.83;;;14.60;67.70;;;;;;5041711;28;20038;-56
2023/05/01 08:15:07;;;;;;;3.95;2.97;;;14.60;67.70;;;;;;5037257;28;20040;-56
2023/05/01 08:17:35;;;;;;;4.40;3.08;;;14.70;67.90;;;;;;5040595;28;20032;-55
2023/05/01 08:20:00;;;;;;;4.45;3.00;;;14.70;67.50;;;;;;5044130;28;20119;-56
2023/05/01 08:22:26;;;;;;;3.40;2.88;;;14.80;67.30;;;;;;5048786;28;20101;-60
2023/05/01 08:24:52;;;;;;;3.15;2.83;;;14.80;67.30;;;;;;5050532;28;20116;-60
2023/05/01 08:27:17;;;;;;;3.83;2.85;;;14.90;67.40;;;;;;5047245;28;20554;-58
2023/05/01 08:29:43;;;;;;;4.97;3.10;;;14.90;67.20;;;;;;5046396;28;20475;-55
2023/05/01 08:32:09;;;;;;;3.22;2.92;;;15.00;67.00;;;;;;5052980;28;20039;-58
2023/05/01 08:34:35;;;;;;;3.65;3.08;;;15.00;66.90;;;;;;5041937;28;20569;-59
2023/05/01 08:37:01;;;;;;;3.80;3.10;;;15.10;66.70;;;;;;5068652;28;20039;-58
2023/05/01 08:39:26;;;;;;;4.03;2.97;;;15.10;66.40;;;;;;5048286;28;20039;-56
2023/05/01 08:41:52;;;;;;;3.65;2.80;;;15.20;66.50;;;;;;5041689;28;20032;-58
2023/05/01 08:44:19;;;;;;;3.17;2.70;;;15.20;66.40;;;;;;5053380;28;20145;-59
2023/05/01 08:46:52;;;;;;;3.08;2.78;;;15.20;66.40;;;;;;5051490;28;20037;-57
2023/05/01 08:49:20;;;;;;;3.60;2.92;;;15.30;66.20;;;;;;5034968;28;20820;-58
2023/05/01 08:51:48;;;;;;;3.80;3.13;;;15.30;66.10;;;;;;5043115;28;20048;-60
2023/05/01 08:54:16;;;;;;;3.75;3.13;;;15.30;66.20;;;;;;5052407;28;20068;-60
2023/05/01 08:56:46;;;;;;;5.05;3.17;;;15.30;65.80;;;;;;5048092;28;20032;-60
2023/05/01 08:59:17;;;;;;;5.45;2.83;;;15.40;65.80;;;;;;5046424;28;20688;-60
2023/05/01 09:01:45;;;;;;;3.87;2.50;;;15.40;65.30;;;;;;5044194;28;20044;-58
2023/05/01 09:04:12;;;;;;;2.80;2.60;;;15.40;65.30;;;;;;5052705;28;20120;-59
2023/05/01 09:06:37;;;;;;;3.45;3.13;;;15.50;65.40;;;;;;5045111;28;20040;-60
2023/05/01 09:09:03;;;;;;;2.55;2.35;;;15.50;65.40;;;;;;5052075;28;20059;-59
2023/05/01 09:11:29;;;;;;;2.75;2.50;;;15.50;65.00;;;;;;5041163;28;20040;-59
2023/05/01 09:13:56;;;;;;;3.47;2.70;;;15.40;65.30;;;;;;5047838;28;20040;-59
2023/05/01 09:16:22;;;;;;;2.70;2.50;;;15.50;65.60;;;;;;5047229;28;20157;-59
2023/05/01 09:18:48;;;;;;;3.90;2.70;;;15.50;65.30;;;;;;5042935;28;20036;-59
2023/05/01 09:21:13;;;;;;;3.42;2.80;;;15.50;65.00;;;;;;5035328;28;20300;-60
2023/05/01 09:23:39;;;;;;;3.28;2.50;;;15.50;65.20;;;;;;5041010;28;20032;-59
2023/05/01 09:26:06;;;;;;;3.60;2.50;;;15.50;65.20;;;;;;5042216;28;20032;-60
2023/05/01 09:28:47;;;;;;;4.13;2.72;;;15.40;64.80;;;;;;5039235;28;20032;-57
2023/05/01 09:31:31;;;;;;;3.00;2.70;;;15.40;64.50;;;;;;5044940;28;20100;-59
2023/05/01 09:34:04;;;;;;;3.47;2.67;;;15.40;64.90;;;;;;5044321;28;20047;-61
2023/05/01 09:36:31;;;;;;;3.83;2.97;;;15.40;64.60;;;;;;5049334;28;20225;-59
2023/05/01 09:38:59;;;;;;;3.40;2.50;;;15.40;64.40;;;;;;5057359;28;20032;-59
2023/05/01 09:41:25;;;;;;;3.38;3.08;;;15.40;64.20;;;;;;5048796;28;20107;-60
2023/05/01 09:43:52;;;;;;;2.92;2.65;;;15.40;64.50;;;;;;5045286;28;20402;-60
2023/05/01 09:46:19;;;;;;;3.15;2.85;;;15.30;64.40;;;;;;5050269;28;20041;-60
2023/05/01 09:48:55;;;;;;;3.15;2.72;;;15.30;64.00;;;;;;5036618;28;20037;-60
2023/05/01 09:51:30;;;;;;;2.72;2.53;;;15.30;64.00;;;;;;5036846;28;21118;-60
2023/05/01 09:54:02;;;;;;;3.78;2.60;;;15.20;64.20;;;;;;5041991;28;20110;-58
2023/05/01 09:56:30;;;;;;;5.28;3.10;;;15.20;64.00;;;;;;5036944;28;20035;-58
2023/05/01 09:59:12;;;;;;;3.53;2.40;;;15.20;63.90;;;;;;5040727;28;20043;-59
2023/05/01 10:01:40;;;;;;;2.78;2.45;;;15.20;63.60;;;;;;5039029;28;20048;-58
2023/05/01 10:04:08;;;;;;;2.90;2.55;;;15.30;63.60;;;;;;5034816;28;20075;-60
2023/05/01 10:06:35;;;;;;;2.72;2.50;;;15.30;63.60;;;;;;5044819;28;20033;-59
2023/05/01 10:09:01;;;;;;;2.80;2.53;;;15.20;63.60;;;;;;5048556;28;20045;-59
2023/05/01 10:11:27;;;;;;;3.28;2.30;;;15.30;63.30;;;;;;5045279;28;23072;-59
2023/05/01 10:14:09;;;;;;;2.55;2.35;;;15.30;63.10;;;;;;5053551;28;20056;-59
2023/05/01 10:16:36;;;;;;;;;;;15.20;63.30;;;;;;5035859;28;20402;-59
2023/05/01 10:19:02;;;;;;;2.70;2.50;;;15.20;62.30;;;;;;5040052;28;19962;-58
2023/05/01 10:21:29;;;;;;;2.63;2.20;;;15.10;62.40;;;;;;5056410;28;20032;-60
2023/05/01 10:23:54;;;;;;;2.30;2.10;;;15.10;61.90;;;;;;5051110;28;20534;-60
2023/05/01 10:26:20;;;;;;;2.63;2.20;;;15.10;61.90;;;;;;5044395;28;20031;-60
2023/05/01 10:28:47;;;;;;;3.22;2.28;;;15.00;61.90;;;;;;5050595;28;20720;-59
2023/05/01 10:31:14;;;;;;;2.50;2.30;;;15.00;62.10;;;;;;5051347;28;20040;-61
2023/05/01 10:33:41;;;;;;;2.45;2.25;;;15.00;62.30;;;;;;5047212;28;20044;-60
2023/05/01 10:36:33;;;;;;;2.17;2.08;;;15.00;62.40;;;;;;5050998;28;20037;-59
2023/05/01 10:38:59;;;;;;;2.45;2.03;;;15.00;62.10;;;;;;5040314;28;20028;-61
2023/05/01 10:42:09;;;;;;;3.03;2.30;;;15.00;62.10;;;;;;5044777;28;20029;-60
2023/05/01 10:44:36;;;;;;;2.30;2.10;;;15.00;61.60;;;;;;5041571;28;20029;-58
2023/05/01 10:47:24;;;;;;;2.47;2.05;;;15.10;62.00;;;;;;5053629;28;20059;-60
2023/05/01 10:50:09;;;;;;;2.75;2.50;;;15.10;61.30;;;;;;5052016;28;20032;-59
2023/05/01 10:53:09;;;;;;;4.20;2.80;;;15.20;61.10;;;;;;5055729;28;20040;-61
2023/05/01 10:55:36;;;;;;;2.15;1.90;;;15.20;60.90;;;;;;5055461;28;20071;-60
2023/05/01 10:58:02;;;;;;;2.60;2.05;;;15.20;61.00;;;;;;5051269;28;20028;-60
2023/05/01 11:00:28;;;;;;;2.33;2.10;;;15.20;60.60;;;;;;5033293;28;20126;-59
2023/05/01 11:03:22;;;;;;;2.30;2.10;;;15.10;59.90;;;;;;5049950;28;20028;-58
2023/05/01 11:06:01;;;;;;;2.67;2.00;;;15.10;59.00;;;;;;5055118;28;20024;-58
2023/05/01 11:08:32;;;;;;;2.72;2.20;;;15.10;59.10;;;;;;5058221;28;20074;-58
2023/05/01 11:11:17;;;;;;;1.93;1.83;;;15.10;59.20;;;;;;5054421;28;20043;-59
2023/05/01 11:13:56;;;;;;;2.63;2.00;;;15.10;58.80;;;;;;5038279;28;20041;-60
2023/05/01 11:16:40;;;;;;;2.25;1.80;;;15.10;58.60;;;;;;5048479;28;22603;-58
2023/05/01 11:19:07;;;;;;;3.05;2.00;;;15.00;58.70;;;;;;5050003;28;20029;-59
2023/05/01 11:21:35;;;;;;;2.03;1.85;;;15.00;58.70;;;;;;5057440;28;20036;-59
2023/05/01 11:24:04;;;;;;;1.98;1.88;;;15.00;59.00;;;;;;5047846;28;20120;-59
2023/05/01 11:26:31;;;;;;;1.88;1.77;;;15.00;59.00;;;;;;5049727;28;20037;-59
2023/05/01 11:29:00;;;;;;;1.88;1.77;;;15.00;58.80;;;;;;5050035;28;20044;-58
2023/05/01 11:31:26;;;;;;;2.05;1.85;;;15.00;58.90;;;;;;5052142;28;20497;-60
2023/05/01 11:33:56;;;;;;;2.10;1.90;;;15.00;58.30;;;;;;5042776;28;20025;-58
2023/05/01 11:36:21;;;;;;;2.00;1.90;;;15.00;57.40;;;;;;5040031;28;20028;-61
2023/05/01 11:38:57;;;;;;;2.08;1.80;;;15.00;57.60;;;;;;5039261;28;20734;-60
2023/05/01 11:41:25;;;;;;;2.20;2.00;;;15.00;57.90;;;;;;5052754;28;20048;-60
2023/05/01 11:43:56;;;;;;;2.00;1.90;;;15.00;58.10;;;;;;5049326;28;20391;-60
2023/05/01 11:46:24;;;;;;;1.92;1.73;;;15.00;58.30;;;;;;5038000;28;20728;-58
2023/05/01 11:48:50;;;;;;;3.42;2.00;;;15.00;58.30;;;;;;5048920;28;20032;-59
2023/05/01 11:51:16;;;;;;;1.83;1.73;;;15.00;58.20;;;;;;5042834;28;20094;-60
2023/05/01 11:53:42;;;;;;;1.83;1.73;;;15.00;57.60;;;;;;5055004;28;20029;-60
2023/05/01 11:56:20;;;;;;;1.83;1.73;;;15.00;57.70;;;;;;5050030;28;20028;-58
2023/05/01 11:58:47;;;;;;;1.58;1.48;;;15.00;57.40;;;;;;5050073;28;20044;-58
2023/05/01 12:01:13;;;;;;;1.67;1.50;;;15.00;57.20;;;;;;5048158;28;20595;-60
2023/05/01 12:03:42;;;;;;;2.08;1.88;;;15.00;56.80;;;;;;5042660;28;20037;-59
2023/05/01 12:06:12;;;;;;;2.22;2.03;;;15.10;57.10;;;;;;5038551;28;20036;-58
2023/05/01 12:08:44;;;;;;;2.00;1.90;;;15.10;56.70;;;;;;5056221;28;20144;-59
2023/05/01 12:11:10;;;;;;;2.15;1.95;;;15.10;56.50;;;;;;5051039;28;20032;-59
2023/05/01 12:13:37;;;;;;;1.90;1.80;;;15.10;56.60;;;;;;5046303;28;20036;-58
2023/05/01 12:16:03;;;;;;;1.88;1.70;;;15.20;56.70;;;;;;5052954;28;20848;-60
2023/05/01 12:18:29;;;;;;;2.00;1.90;;;15.10;56.50;;;;;;5046494;28;20068;-59
2023/05/01 12:20:55;;;;;;;4.18;2.00;;;15.10;56.20;;;;;;5039059;28;20036;-59
2023/05/01 12:23:36;;;;;;;2.00;1.80;;;15.10;56.10;;;;;;5044665;28;20028;-59
2023/05/01 12:26:18;;;;;;;2.00;1.90;;;15.10;55.20;;;;;;5024444;28;20032;-56
2023/05/01 12:29:00;;;;;;;1.70;1.60;;;15.10;55.60;;;;;;5032306;28;20106;-59
2023/05/01 12:31:27;;;;;;;2.28;1.80;;;15.10;55.40;;;;;;5029545;28;20041;-60
2023/05/01 12:34:04;;;;;;;1.75;1.52;;;15.10;55.70;;;;;;5044171;28;20062;-59
2023/05/01 12:36:35;;;;;;;1.52;1.42;;;15.10;56.00;;;;;;5024032;28;21014;-58
2023/05/01 12:39:13;;;;;;;2.03;1.90;;;15.00;56.00;;;;;;5024445;28;20060;-59
2023/05/01 12:41:47;;;;;;;1.70;1.60;;;15.00;55.70;;;;;;5033328;28;20037;-58
2023/05/01 12:44:29;;;;;;;3.10;1.70;;;15.00;55.60;;;;;;5038401;28;20032;-60
2023/05/01 12:47:08;;;;;;;1.65;1.55;;;15.00;54.70;;;;;;5037338;28;20032;-55
2023/05/01 12:49:36;;;;;;;1.58;1.48;;;15.00;54.60;;;;;;5022622;28;20036;-56
2023/05/01 12:52:04;;;;;;;1.38;1.38;;;15.00;54.70;;;;;;5046033;28;20064;-56
2023/05/01 12:54:31;;;;;;;1.70;1.60;;;15.00;54.70;;;;;;5042761;28;22164;-55
2023/05/01 12:57:16;;;;;;;1.65;1.55;;;15.00;54.80;;;;;;5044038;28;20029;-53